Airfield :
LOGIN :

Register | Disclaimer

   EN    FR    IT 

 










Legend :    VFR   Marginal VFR   IFR   Intensive IFR   Very Intensive IFR
Visi :
Ceiling :
>= 8 km
>= 3000ft
5 to 8 km
1000 to 3000 ft
1500m to 5 km
500 to 1000 ft
800 to 1500m
200 to 500 ft
< 800m
< 200 ft
Symbols :   Thunderstorms  Fog  Heavy snow  Heavy precipitations  Wind > 20 kt
SIGMETs :     Misc.  Thunderstorms  Icing  Turbulence  Mountain Waves  Volcanic Ashes







- Airport Elevation : 40 ft
- IATA code : RMI


LIPR - Federico Fellini Int. Rimini

CURRENT METAR :
  • 160550Z 23002KT 4000 BR SCT015 BKN035 17/16 Q1019 RERA

EXPIRED METARs :
  • 160520Z 24002KT 5000 -RA SCT020 BKN035 17/15 Q1019 RERA
  • 160450Z AUTO 24003KT 6000 FEW014/// SCT037/// BKN048/// 17/15 Q1019
  • 160420Z AUTO VRB02KT 5000 BR BKN015/// 17/15 Q1019
  • 160350Z AUTO 27004KT 5000 BR SCT016/// BKN024/// BKN050/// 17/15 Q1019
  • 160320Z AUTO 27005KT 5000 BR BKN031/// 17/15 Q1019

TAF TAF LIPR
Valid from the 16 at 00:00 until the 16 at 09:00 UTC


152300Z 1600/1609 13008KT 3000 BR FEW015
TEMPO 1600/1606 0800 BCFG
No reported NOTAMs for that airfield.



MET'MAP, your aeronautical weather chart ! - Copyright ORBIFLY December 2007 - Disclaimer

ORBIFLY MET'MAP TEAM :

Programming & Development : Alexandra Zaïnal
Concept & Development : Baudouin d'Aumeries
Co-Development & Prog : Marc-Olivier Méhu
Technical & hardware support : Manuel Goepfert

Contact : metmap@orbifly.com




SOURCES & CREDITS :

   NOAA